King Khaled Air Base
OEKM : now visible

Airfield :











YOU CAN JOIN US ON...

 
LOGIN :

Register | Disclaimer

   EN    FR    IT 

 









Legend :    VFR   Marginal VFR   IFR   Intensive IFR   Very Intensive IFR
Visi :
Ceiling :
>= 8 km
>= 3000ft
5 to 8 km
1000 to 3000 ft
1500m to 5 km
500 to 1000 ft
800 to 1500m
200 to 500 ft
< 800m
< 200 ft
Symbols :   Thunderstorms  Fog  Heavy snow  Heavy precipitations  Wind > 20 kt






- Airport Elevation : 6778 ft
- IATA code : KMX


OEKM - King Khaled Air Base

CURRENT METAR :
  • 280800Z 06006KT CAVOK 28/06 Q1025 NOSIG

EXPIRED METARs :
  • 280700Z 05012KT CAVOK 27/05 Q1025 NOSIG
  • 280600Z 06008KT CAVOK 26/06 Q1025 NOSIG

TAF TAF OEKM
Valid from the 28 at 00:00 until the 29 at 06:00 UTC


272300Z 2800/2906 19006KT 9999 SCT020
BECMG 2806/2808 24015KT
TEMPO 2806/2816 6000 TSRA BKN020 FEW025CB
OEJD FIR / Asia



MET'MAP, your aeronautical weather chart ! - Copyright ORBIFLY December 2007 - Disclaimer

ORBIFLY MET'MAP TEAM :

Programming & Development : Alexandra Zaïnal
Concept & original design : Baudouin d'Aumeries
Assistance for programming : Marc-Olivier Méhu
Technical & hardware support : Manuel Goepfert

Contact : metmap@orbifly.com




SOURCES & CREDITS :

   NOAA       Earth
Advisory